Time;durP1;ratioP1;P1;durP2;ratioP2;P2;SDS_P1;SDS_P2;PMS_P1;PMS_P2;Temp;Humidity;BMP_temperature;BMP_pressure;BME280_temperature;BME280_humidity;BME280_pressure;Samples;Min_cycle;Max_cycle;Signal;HPM_P1;HPM_P2
2023/12/12 00:00:46;;;;;;;3.63;3.07;;;;;;;;;;5023397;28;87884;-64
2023/12/12 00:03:15;;;;;;;5.10;2.97;;;;;;;;;;5020379;28;87650;-64
2023/12/12 00:05:43;;;;;;;5.17;2.90;;;;;;;;;;5014712;28;87754;-64
2023/12/12 00:08:12;;;;;;;3.93;2.63;;;;;;;;;;5013025;28;89794;-64
2023/12/12 00:10:41;;;;;;;3.03;2.57;;;;;;;;;;5012561;28;88760;-64
2023/12/12 00:13:13;;;;;;;4.43;3.03;;;;;;;;;;5013226;28;87417;-64
2023/12/12 00:15:42;;;;;;;4.97;3.03;;;;;;;;;;5014187;28;87679;-64
2023/12/12 00:18:11;;;;;;;4.97;2.97;;;;;;;;;;5012755;28;89659;-64
2023/12/12 00:20:41;;;;;;;4.23;3.13;;;;;;;;;;5012235;28;89166;-64
2023/12/12 00:23:09;;;;;;;3.43;2.47;;;;;;;;;;5012654;28;87328;-64
2023/12/12 00:25:37;;;;;;;6.50;2.60;;;;;;;;;;5010611;28;87861;-64
2023/12/12 00:28:07;;;;;;;5.07;2.97;;;;;;;;;;5010294;28;89640;-64
2023/12/12 00:30:37;;;;;;;6.93;2.80;;;;;;;;;;5009501;28;92083;-64
2023/12/12 00:33:05;;;;;;;4.87;3.03;;;;;;;;;;5012824;28;87692;-64
2023/12/12 00:35:39;;;;;;;3.97;2.47;;;;;;;;;;5003858;28;87399;-64
2023/12/12 00:38:08;;;;;;;4.10;2.80;;;;;;;;;;5003691;28;89599;-64
2023/12/12 00:40:37;;;;;;;4.30;2.60;;;;;;;;;;5011311;28;87952;-64
2023/12/12 00:43:07;;;;;;;3.53;2.97;;;;;;;;;;5012253;28;87421;-64
2023/12/12 00:45:36;;;;;;;3.47;2.70;;;;;;;;;;5011650;28;89038;-64
2023/12/12 00:48:05;;;;;;;3.90;2.37;;;;;;;;;;5013935;28;89680;-64
2023/12/12 00:50:33;;;;;;;4.87;2.80;;;;;;;;;;5010570;28;89140;-64
2023/12/12 00:53:02;;;;;;;3.37;2.73;;;;;;;;;;5013962;28;87485;-64
2023/12/12 00:55:33;;;;;;;3.50;2.83;;;;;;;;;;5012546;28;87754;-64
2023/12/12 00:58:04;;;;;;;5.40;3.17;;;;;;;;;;5012427;28;89830;-64
2023/12/12 01:00:36;;;;;;;6.30;2.83;;;;;;;;;;5014348;28;88671;-64
2023/12/12 01:03:04;;;;;;;5.93;3.97;;;;;;;;;;5011426;28;87455;-64
2023/12/12 01:05:34;;;;;;;6.00;3.90;;;;;;;;;;5012135;28;87631;-64
2023/12/12 01:08:02;;;;;;;6.97;3.80;;;;;;;;;;5011611;28;91053;-64
2023/12/12 01:10:32;;;;;;;5.90;3.60;;;;;;;;;;5012570;28;88965;-64
2023/12/12 01:13:03;;;;;;;5.23;3.47;;;;;;;;;;5013203;28;87287;-64
2023/12/12 01:15:33;;;;;;;6.83;3.47;;;;;;;;;;5012730;28;87286;-64
2023/12/12 01:18:03;;;;;;;7.37;4.43;;;;;;;;;;5011262;28;89619;-64
2023/12/12 01:20:31;;;;;;;6.37;3.87;;;;;;;;;;5014060;28;89036;-64
2023/12/12 01:23:01;;;;;;;5.77;3.80;;;;;;;;;;5012108;28;87555;-64
2023/12/12 01:25:31;;;;;;;5.33;3.37;;;;;;;;;;5012504;28;87677;-64
2023/12/12 01:28:01;;;;;;;7.77;4.40;;;;;;;;;;5013185;28;92888;-64
2023/12/12 01:30:29;;;;;;;4.73;3.70;;;;;;;;;;5012367;28;88038;-64
2023/12/12 01:33:00;;;;;;;4.67;3.87;;;;;;;;;;5012943;28;87259;-64
2023/12/12 01:35:30;;;;;;;5.63;3.20;;;;;;;;;;5012157;28;87563;-64
2023/12/12 01:38:00;;;;;;;5.10;3.70;;;;;;;;;;5011144;28;89737;-64
2023/12/12 01:40:29;;;;;;;5.47;3.13;;;;;;;;;;5012661;28;89123;-64
2023/12/12 01:43:04;;;;;;;6.27;3.17;;;;;;;;;;5010141;28;89009;-64
2023/12/12 01:45:34;;;;;;;8.70;4.10;;;;;;;;;;5012373;28;87391;-64
2023/12/12 01:48:02;;;;;;;4.73;3.77;;;;;;;;;;5012292;28;89651;-64
2023/12/12 01:50:34;;;;;;;8.17;3.67;;;;;;;;;;5010323;28;89263;-64
2023/12/12 01:53:02;;;;;;;6.10;3.67;;;;;;;;;;5013043;28;87686;-64
2023/12/12 01:55:32;;;;;;;5.67;4.17;;;;;;;;;;5009927;28;87621;-64
2023/12/12 01:58:00;;;;;;;4.87;3.10;;;;;;;;;;5011352;28;89854;-64
2023/12/12 02:00:29;;;;;;;5.13;3.87;;;;;;;;;;5009836;28;88987;-65
2023/12/12 02:02:57;;;;;;;7.00;4.43;;;;;;;;;;5012128;28;87400;-64
2023/12/12 02:05:26;;;;;;;5.40;3.87;;;;;;;;;;5014431;28;87668;-64
2023/12/12 02:07:57;;;;;;;5.70;3.40;;;;;;;;;;5011299;28;89623;-64
2023/12/12 02:10:28;;;;;;;5.40;4.20;;;;;;;;;;5010194;28;89288;-64
2023/12/12 02:12:57;;;;;;;7.83;4.27;;;;;;;;;;5013172;28;87433;-64
2023/12/12 02:15:25;;;;;;;9.43;3.90;;;;;;;;;;5012957;28;87397;-64
2023/12/12 02:17:53;;;;;;;6.77;3.93;;;;;;;;;;5010748;28;89609;-64
2023/12/12 02:20:22;;;;;;;7.37;3.60;;;;;;;;;;5011935;28;89012;-64
2023/12/12 02:22:52;;;;;;;7.63;5.07;;;;;;;;;;5010354;28;87329;-64
2023/12/12 02:25:20;;;;;;;7.30;4.63;;;;;;;;;;5011635;28;87604;-64
2023/12/12 02:27:48;;;;;;;10.97;5.07;;;;;;;;;;5010055;28;88931;-64
2023/12/12 02:30:18;;;;;;;6.83;4.43;;;;;;;;;;5009958;28;89143;-64
2023/12/12 02:32:47;;;;;;;7.07;4.37;;;;;;;;;;5011320;28;89295;-64
2023/12/12 02:35:15;;;;;;;6.50;4.33;;;;;;;;;;5010489;28;87504;-64
2023/12/12 02:37:46;;;;;;;4.60;3.30;;;;;;;;;;5010269;28;89667;-64
2023/12/12 02:40:15;;;;;;;6.57;4.77;;;;;;;;;;5010243;28;89133;-64
2023/12/12 02:42:45;;;;;;;9.57;5.57;;;;;;;;;;5010261;28;87566;-64
2023/12/12 02:45:14;;;;;;;8.00;4.97;;;;;;;;;;5012976;28;87526;-64
2023/12/12 02:47:43;;;;;;;7.43;4.70;;;;;;;;;;5009711;28;89888;-64
2023/12/12 02:50:12;;;;;;;5.00;4.10;;;;;;;;;;5012947;28;89011;-65
2023/12/12 02:52:42;;;;;;;8.10;4.70;;;;;;;;;;5014657;28;87701;-66
2023/12/12 02:55:11;;;;;;;8.80;4.80;;;;;;;;;;5014901;28;88582;-63
2023/12/12 02:57:44;;;;;;;7.10;4.37;;;;;;;;;;5014823;28;89688;-64
2023/12/12 03:00:12;;;;;;;8.83;4.80;;;;;;;;;;5012924;28;89217;-64
2023/12/12 03:02:41;;;;;;;7.13;4.33;;;;;;;;;;5011295;28;87539;-65
2023/12/12 03:05:09;;;;;;;8.83;4.40;;;;;;;;;;5011304;28;87636;-65
2023/12/12 03:07:39;;;;;;;4.23;3.53;;;;;;;;;;5011519;28;89959;-64
2023/12/12 03:10:08;;;;;;;7.07;4.30;;;;;;;;;;5009691;28;87878;-64
2023/12/12 03:12:36;;;;;;;7.43;4.63;;;;;;;;;;5011567;28;88154;-64
2023/12/12 03:15:07;;;;;;;6.87;4.53;;;;;;;;;;5012909;28;88216;-64
2023/12/12 03:17:35;;;;;;;7.53;4.17;;;;;;;;;;5014993;28;89657;-65
2023/12/12 03:20:05;;;;;;;4.87;3.80;;;;;;;;;;5012994;28;89076;-66
2023/12/12 03:22:33;;;;;;;7.27;4.37;;;;;;;;;;5010244;28;87452;-66
2023/12/12 03:25:02;;;;;;;4.23;3.07;;;;;;;;;;5013298;28;87471;-65
2023/12/12 03:27:31;;;;;;;6.37;4.07;;;;;;;;;;5012905;28;88941;-66
2023/12/12 03:30:01;;;;;;;9.43;3.87;;;;;;;;;;5011134;28;89249;-65
2023/12/12 03:32:32;;;;;;;4.00;3.20;;;;;;;;;;5011503;28;87573;-65
2023/12/12 03:35:01;;;;;;;6.37;3.43;;;;;;;;;;5012455;28;87664;-65
2023/12/12 03:37:29;;;;;;;4.90;3.17;;;;;;;;;;5011465;28;89571;-65
2023/12/12 03:39:59;;;;;;;7.47;4.30;;;;;;;;;;5009427;28;88967;-64
2023/12/12 03:42:28;;;;;;;5.17;3.73;;;;;;;;;;5011848;28;87536;-65
2023/12/12 03:44:56;;;;;;;5.90;4.50;;;;;;;;;;5010549;28;87662;-66
2023/12/12 03:47:24;;;;;;;5.27;3.70;;;;;;;;;;5012471;28;89651;-65
2023/12/12 03:49:54;;;;;;;6.10;4.20;;;;;;;;;;5008934;28;89384;-65
2023/12/12 03:52:25;;;;;;;5.57;3.77;;;;;;;;;;5011905;28;87486;-65
2023/12/12 03:54:53;;;;;;;6.50;4.07;;;;;;;;;;5009516;28;87738;-65
2023/12/12 03:57:21;;;;;;;4.70;3.67;;;;;;;;;;5010245;28;89568;-64
2023/12/12 03:59:49;;;;;;;5.00;3.73;;;;;;;;;;5008709;28;89096;-64
2023/12/12 04:02:18;;;;;;;4.47;3.50;;;;;;;;;;5011053;28;87483;-64
2023/12/12 04:04:46;;;;;;;8.40;4.53;;;;;;;;;;5013679;28;87838;-64
2023/12/12 04:07:16;;;;;;;7.37;4.07;;;;;;;;;;5017479;28;89586;-64
2023/12/12 04:09:44;;;;;;;8.83;4.07;;;;;;;;;;5001010;28;89178;-64
2023/12/12 04:12:13;;;;;;;6.47;3.63;;;;;;;;;;5011040;28;87508;-64
2023/12/12 04:14:41;;;;;;;6.90;4.13;;;;;;;;;;5008972;28;87952;-64
2023/12/12 04:17:11;;;;;;;7.93;4.27;;;;;;;;;;5011523;28;89522;-65
2023/12/12 04:19:39;;;;;;;8.27;4.20;;;;;;;;;;5021474;28;89000;-64
2023/12/12 04:22:07;;;;;;;7.50;3.57;;;;;;;;;;5023569;28;87560;-64
2023/12/12 04:24:38;;;;;;;6.03;4.00;;;;;;;;;;5023869;28;87267;-64
2023/12/12 04:27:06;;;;;;;5.47;3.30;;;;;;;;;;5015669;28;89276;-64
2023/12/12 04:29:36;;;;;;;6.23;4.50;;;;;;;;;;5018589;28;88019;-64
2023/12/12 04:32:05;;;;;;;8.17;4.20;;;;;;;;;;5008568;28;87449;-64
2023/12/12 04:34:34;;;;;;;7.73;4.37;;;;;;;;;;5021723;28;87717;-65
2023/12/12 04:37:03;;;;;;;5.20;4.23;;;;;;;;;;5023294;28;89559;-64
2023/12/12 04:39:33;;;;;;;5.07;3.73;;;;;;;;;;5023137;28;88998;-65
2023/12/12 04:42:04;;;;;;;6.77;4.00;;;;;;;;;;5021790;28;87172;-64
2023/12/12 04:44:33;;;;;;;5.93;4.23;;;;;;;;;;5020616;28;87485;-65
2023/12/12 04:47:01;;;;;;;8.10;4.50;;;;;;;;;;5023492;28;89761;-64
2023/12/12 04:49:30;;;;;;;7.27;4.53;;;;;;;;;;5023261;28;89086;-65
2023/12/12 04:51:58;;;;;;;6.80;4.57;;;;;;;;;;5021641;28;87282;-64
2023/12/12 04:54:27;;;;;;;8.67;4.13;;;;;;;;;;5023184;28;87361;-64
2023/12/12 04:56:55;;;;;;;6.13;3.73;;;;;;;;;;5013865;28;89525;-64
2023/12/12 04:59:26;;;;;;;9.63;5.00;;;;;;;;;;5022374;28;89195;-64
2023/12/12 05:01:55;;;;;;;7.63;4.17;;;;;;;;;;5021455;28;87420;-65
2023/12/12 05:04:25;;;;;;;6.83;4.37;;;;;;;;;;5022365;28;87658;-64
2023/12/12 05:06:53;;;;;;;7.67;4.33;;;;;;;;;;5022918;28;89718;-65
2023/12/12 05:09:22;;;;;;;7.33;4.20;;;;;;;;;;5020937;28;89601;-64
2023/12/12 05:11:51;;;;;;;4.27;3.27;;;;;;;;;;5022589;28;87446;-65
2023/12/12 05:14:19;;;;;;;10.60;4.73;;;;;;;;;;5004864;28;87631;-64
2023/12/12 05:16:50;;;;;;;5.13;3.93;;;;;;;;;;5002930;28;89902;-64
2023/12/12 05:19:34;;;;;;;6.10;3.90;;;;;;;;;;5002281;28;88701;-64
2023/12/12 05:22:03;;;;;;;5.93;3.63;;;;;;;;;;5004202;28;87312;-64
2023/12/12 05:24:31;;;;;;;5.67;3.67;;;;;;;;;;5013658;28;87419;-64
2023/12/12 05:27:03;;;;;;;4.60;3.80;;;;;;;;;;5022695;28;89682;-64
2023/12/12 05:29:33;;;;;;;10.37;4.13;;;;;;;;;;5002391;28;88640;-65
2023/12/12 05:32:02;;;;;;;6.47;4.60;;;;;;;;;;5004943;28;87407;-64
2023/12/12 05:34:31;;;;;;;7.30;4.07;;;;;;;;;;5018533;28;87658;-64
2023/12/12 05:36:59;;;;;;;7.83;3.90;;;;;;;;;;5022513;28;89688;-65
2023/12/12 05:39:27;;;;;;;4.23;3.30;;;;;;;;;;5022422;28;89130;-64
2023/12/12 05:41:56;;;;;;;4.63;3.30;;;;;;;;;;5038105;28;87441;-64
2023/12/12 05:44:24;;;;;;;4.70;3.30;;;;;;;;;;5022937;28;87570;-64
2023/12/12 05:46:55;;;;;;;3.70;3.10;;;;;;;;;;5002488;28;89758;-64
2023/12/12 05:49:25;;;;;;;4.13;3.23;;;;;;;;;;5002159;28;88951;-65
2023/12/12 05:51:53;;;;;;;4.17;2.73;;;;;;;;;;5002464;28;87285;-64
2023/12/12 05:54:24;;;;;;;6.43;3.30;;;;;;;;;;5002436;28;87717;-64
2023/12/12 05:56:55;;;;;;;6.03;3.20;;;;;;;;;;5020593;28;89638;-64
2023/12/12 05:59:24;;;;;;;4.17;3.13;;;;;;;;;;5006433;28;89220;-64
2023/12/12 06:01:53;;;;;;;4.50;3.03;;;;;;;;;;5002433;28;87401;-64
2023/12/12 06:04:21;;;;;;;3.20;2.80;;;;;;;;;;5002286;28;87791;-65
2023/12/12 06:06:52;;;;;;;6.33;3.13;;;;;;;;;;5002284;28;89481;-64
2023/12/12 06:09:20;;;;;;;5.53;3.07;;;;;;;;;;5017117;28;89117;-64
2023/12/12 06:11:49;;;;;;;4.83;2.50;;;;;;;;;;5022427;28;87590;-64
2023/12/12 06:14:20;;;;;;;4.07;2.80;;;;;;;;;;5019957;28;87611;-64
2023/12/12 06:16:48;;;;;;;3.57;2.70;;;;;;;;;;5021113;28;89650;-64
2023/12/12 06:19:20;;;;;;;2.40;2.20;;;;;;;;;;5021189;28;89136;-64
2023/12/12 06:21:53;;;;;;;6.07;2.67;;;;;;;;;;5017035;28;87377;-63
2023/12/12 06:24:23;;;;;;;3.63;2.03;;;;;;;;;;5020746;28;87675;-66
2023/12/12 06:26:51;;;;;;;5.07;2.87;;;;;;;;;;5020181;28;89622;-63
2023/12/12 06:29:20;;;;;;;3.73;2.47;;;;;;;;;;5021412;28;89092;-66
2023/12/12 06:31:49;;;;;;;7.13;3.40;;;;;;;;;;5021759;28;87125;-63
2023/12/12 06:34:18;;;;;;;3.87;3.07;;;;;;;;;;5007976;28;87592;-65
2023/12/12 06:36:46;;;;;;;8.60;3.60;;;;;;;;;;5015535;28;89729;-65
2023/12/12 06:39:16;;;;;;;4.83;2.90;;;;;;;;;;5004081;28;88996;-65
2023/12/12 06:41:47;;;;;;;5.37;3.40;;;;;;;;;;5021458;28;87421;-65
2023/12/12 06:44:16;;;;;;;5.50;3.53;;;;;;;;;;5019917;28;87523;-65
2023/12/12 06:46:46;;;;;;;4.40;2.47;;;;;;;;;;5005782;28;89621;-65
2023/12/12 06:49:15;;;;;;;4.73;2.87;;;;;;;;;;5014542;28;89033;-65
2023/12/12 06:51:45;;;;;;;7.07;2.60;;;;;;;;;;5021310;28;87327;-65
2023/12/12 06:54:13;;;;;;;4.07;3.07;;;;;;;;;;5013795;28;87616;-65
2023/12/12 06:56:44;;;;;;;4.23;3.03;;;;;;;;;;5008288;28;89676;-65
2023/12/12 06:59:14;;;;;;;3.77;2.37;;;;;;;;;;5016148;28;88964;-64
2023/12/12 07:01:43;;;;;;;3.23;2.63;;;;;;;;;;5002068;28;87603;-64
2023/12/12 07:04:11;;;;;;;4.03;2.37;;;;;;;;;;5014639;28;87602;-64
2023/12/12 07:06:41;;;;;;;7.10;3.33;;;;;;;;;;5004633;28;89489;-64
2023/12/12 07:09:10;;;;;;;6.10;3.03;;;;;;;;;;5003606;28;88860;-64
2023/12/12 07:11:39;;;;;;;5.63;3.17;;;;;;;;;;5011211;28;87384;-64
2023/12/12 07:14:08;;;;;;;5.30;2.67;;;;;;;;;;5001617;28;87642;-64
2023/12/12 07:16:38;;;;;;;4.30;2.67;;;;;;;;;;5000594;28;89259;-64
2023/12/12 07:19:07;;;;;;;3.70;2.80;;;;;;;;;;5000886;28;89223;-63
2023/12/12 07:21:41;;;;;;;4.27;2.70;;;;;;;;;;5003581;28;87500;-64
2023/12/12 07:24:10;;;;;;;3.83;2.50;;;;;;;;;;5006797;28;87544;-64
2023/12/12 07:26:40;;;;;;;4.90;2.93;;;;;;;;;;5000663;28;89726;-64
2023/12/12 07:29:09;;;;;;;4.43;2.27;;;;;;;;;;5001731;28;89177;-64
2023/12/12 07:31:40;;;;;;;2.67;2.30;;;;;;;;;;5000781;28;87738;-64
2023/12/12 07:34:08;;;;;;;3.97;2.80;;;;;;;;;;5016807;28;87336;-64
2023/12/12 07:36:42;;;;;;;4.10;2.43;;;;;;;;;;5005423;28;89644;-63
2023/12/12 07:39:11;;;;;;;2.33;2.00;;;;;;;;;;5023432;28;91092;-65
2023/12/12 07:41:41;;;;;;;4.03;1.67;;;;;;;;;;5022505;28;87387;-65
2023/12/12 07:44:09;;;;;;;2.07;1.57;;;;;;;;;;5023827;28;87689;-65
2023/12/12 07:46:40;;;;;;;3.57;2.17;;;;;;;;;;5023729;28;89721;-65
2023/12/12 07:49:08;;;;;;;2.77;2.33;;;;;;;;;;5023684;28;89087;-65
2023/12/12 07:51:37;;;;;;;4.97;1.87;;;;;;;;;;5023884;28;87107;-63
2023/12/12 07:54:06;;;;;;;4.67;2.93;;;;;;;;;;5023041;28;87607;-64
2023/12/12 07:56:35;;;;;;;3.03;1.90;;;;;;;;;;5004850;28;89648;-64
2023/12/12 07:59:05;;;;;;;4.60;2.53;;;;;;;;;;5015442;28;89084;-64
2023/12/12 08:01:33;;;;;;;2.57;2.13;;;;;;;;;;5015629;28;87383;-64
2023/12/12 08:04:05;;;;;;;2.40;1.83;;;;;;;;;;5024344;28;87516;-64
2023/12/12 08:06:35;;;;;;;3.83;2.17;;;;;;;;;;5022303;28;89603;-63
2023/12/12 08:09:04;;;;;;;2.70;2.50;;;;;;;;;;5023640;28;89093;-63
2023/12/12 08:11:32;;;;;;;4.23;2.50;;;;;;;;;;5022338;28;87553;-63
2023/12/12 08:14:00;;;;;;;5.67;2.23;;;;;;;;;;5023723;28;87814;-63
2023/12/12 08:16:31;;;;;;;6.43;2.70;;;;;;;;;;5024088;28;92490;-64
2023/12/12 08:19:02;;;;;;;5.40;3.07;;;;;;;;;;5023474;28;89110;-64
2023/12/12 08:21:34;;;;;;;3.97;2.60;;;;;;;;;;5022210;28;87315;-64
2023/12/12 08:24:03;;;;;;;5.90;2.77;;;;;;;;;;5023965;28;87486;-64
2023/12/12 08:26:32;;;;;;;5.90;3.70;;;;;;;;;;5023575;28;89637;-64
2023/12/12 08:29:00;;;;;;;8.33;3.80;;;;;;;;;;5023375;28;89058;-64
2023/12/12 08:31:30;;;;;;;5.90;3.43;;;;;;;;;;5021930;28;87273;-63
2023/12/12 08:34:00;;;;;;;9.63;3.60;;;;;;;;;;5010698;28;87638;-64
2023/12/12 08:36:31;;;;;;;11.73;4.23;;;;;;;;;;5011579;28;88504;-63
2023/12/12 08:39:01;;;;;;;5.30;3.07;;;;;;;;;;5010005;28;89126;-65
2023/12/12 08:41:31;;;;;;;6.93;3.37;;;;;;;;;;5018186;28;87500;-64
2023/12/12 08:44:00;;;;;;;8.40;4.53;;;;;;;;;;5014262;28;87615;-65
2023/12/12 08:46:28;;;;;;;5.33;3.70;;;;;;;;;;5028701;28;89929;-65
2023/12/12 08:48:57;;;;;;;8.40;4.27;;;;;;;;;;5005078;28;89103;-66
2023/12/12 08:51:27;;;;;;;7.43;3.47;;;;;;;;;;5012458;28;87467;-66
2023/12/12 08:53:58;;;;;;;8.67;4.27;;;;;;;;;;5003467;28;87285;-67
2023/12/12 08:56:29;;;;;;;14.03;4.37;;;;;;;;;;5021413;28;89723;-66
2023/12/12 08:58:59;;;;;;;9.17;4.00;;;;;;;;;;5020831;28;89065;-67
2023/12/12 09:01:28;;;;;;;9.40;4.30;;;;;;;;;;5022945;28;87435;-66
2023/12/12 09:03:57;;;;;;;9.43;4.43;;;;;;;;;;5023319;28;87543;-65
2023/12/12 09:06:25;;;;;;;7.20;4.03;;;;;;;;;;5016759;28;89587;-64
2023/12/12 09:08:54;;;;;;;6.97;4.27;;;;;;;;;;5014656;28;89005;-65
2023/12/12 09:11:22;;;;;;;13.23;5.30;;;;;;;;;;5017586;28;87478;-66
2023/12/12 09:13:52;;;;;;;11.87;3.57;;;;;;;;;;5018997;28;87433;-64
2023/12/12 09:16:21;;;;;;;12.53;5.97;;;;;;;;;;5005853;28;90799;-66
2023/12/12 09:18:50;;;;;;;9.57;5.73;;;;;;;;;;5015714;28;89147;-65
2023/12/12 09:21:19;;;;;;;12.07;6.13;;;;;;;;;;5006687;28;87487;-66
2023/12/12 09:23:47;;;;;;;9.27;4.73;;;;;;;;;;5002311;28;87670;-65
2023/12/12 09:26:16;;;;;;;14.40;4.57;;;;;;;;;;5020170;28;92814;-65
2023/12/12 09:28:44;;;;;;;7.93;4.80;;;;;;;;;;5021874;28;89119;-66
2023/12/12 09:31:14;;;;;;;9.37;5.07;;;;;;;;;;5012175;28;87687;-63
2023/12/12 09:33:42;;;;;;;10.07;5.60;;;;;;;;;;5021843;28;87464;-63
2023/12/12 09:36:11;;;;;;;8.93;5.37;;;;;;;;;;5021635;28;89656;-62
2023/12/12 09:38:40;;;;;;;4.77;3.97;;;;;;;;;;5021491;28;89327;-63
2023/12/12 09:41:09;;;;;;;9.63;4.87;;;;;;;;;;5011964;28;87356;-63
2023/12/12 09:43:41;;;;;;;5.93;3.33;;;;;;;;;;5015244;28;87614;-63
2023/12/12 09:46:09;;;;;;;12.87;4.80;;;;;;;;;;5021563;28;90112;-63
2023/12/12 09:48:40;;;;;;;10.20;4.83;;;;;;;;;;5021451;28;88837;-62
2023/12/12 09:51:09;;;;;;;8.37;4.63;;;;;;;;;;5011491;28;87569;-62
2023/12/12 09:53:37;;;;;;;6.73;4.13;;;;;;;;;;5018064;28;87206;-63
2023/12/12 09:56:06;;;;;;;8.97;4.30;;;;;;;;;;5004940;28;89571;-63
2023/12/12 09:58:36;;;;;;;9.23;4.90;;;;;;;;;;5020489;28;88590;-64
2023/12/12 10:01:06;;;;;;;8.70;4.37;;;;;;;;;;5012236;28;87590;-63
2023/12/12 10:03:36;;;;;;;9.93;5.07;;;;;;;;;;5021045;28;87611;-63
2023/12/12 10:06:08;;;;;;;9.13;4.77;;;;;;;;;;5004970;28;89831;-63
2023/12/12 10:08:36;;;;;;;11.97;5.17;;;;;;;;;;5021355;28;89014;-63
2023/12/12 10:11:08;;;;;;;6.70;4.03;;;;;;;;;;5020990;28;87569;-65
2023/12/12 10:13:50;;;;;;;7.40;4.13;;;;;;;;;;5008296;28;87568;-64
2023/12/12 10:16:19;;;;;;;5.73;4.03;;;;;;;;;;5017554;28;89352;-63
2023/12/12 10:18:49;;;;;;;6.20;3.17;;;;;;;;;;5015137;28;89812;-64
2023/12/12 10:21:20;;;;;;;9.50;3.97;;;;;;;;;;5012151;28;87420;-63
2023/12/12 10:23:50;;;;;;;7.20;4.37;;;;;;;;;;5014436;28;87429;-63
2023/12/12 10:26:24;;;;;;;11.37;4.03;;;;;;;;;;5005199;28;89879;-64
2023/12/12 10:28:54;;;;;;;5.77;3.53;;;;;;;;;;5013522;28;88082;-64
2023/12/12 10:31:24;;;;;;;5.77;3.10;;;;;;;;;;5012904;28;87373;-64
2023/12/12 10:33:54;;;;;;;5.17;3.90;;;;;;;;;;5005626;28;87419;-63
2023/12/12 10:36:25;;;;;;;6.43;3.83;;;;;;;;;;5016997;28;91994;-64
2023/12/12 10:38:54;;;;;;;9.87;4.20;;;;;;;;;;5008420;28;89219;-65
2023/12/12 10:41:22;;;;;;;6.70;3.47;;;;;;;;;;5009423;28;87594;-65
2023/12/12 10:43:54;;;;;;;7.83;4.03;;;;;;;;;;5017075;28;88183;-66
2023/12/12 10:46:23;;;;;;;3.83;2.53;;;;;;;;;;5004523;28;91318;-65
2023/12/12 10:48:52;;;;;;;4.57;3.13;;;;;;;;;;5013314;28;88982;-65
2023/12/12 10:51:22;;;;;;;5.90;3.70;;;;;;;;;;5004404;28;87459;-64
2023/12/12 10:53:54;;;;;;;3.70;3.13;;;;;;;;;;5019210;28;88517;-64
2023/12/12 10:56:23;;;;;;;5.30;2.80;;;;;;;;;;5011555;28;89707;-64
2023/12/12 10:58:51;;;;;;;6.93;3.80;;;;;;;;;;5004446;28;89069;-64
2023/12/12 11:01:20;;;;;;;4.50;2.73;;;;;;;;;;5003495;28;87424;-63
2023/12/12 11:03:50;;;;;;;4.87;2.77;;;;;;;;;;5019457;28;87755;-65
2023/12/12 11:06:19;;;;;;;4.43;2.67;;;;;;;;;;5007342;28;89699;-64
2023/12/12 11:08:47;;;;;;;6.17;2.90;;;;;;;;;;5016530;28;89269;-64
2023/12/12 11:11:17;;;;;;;3.47;2.20;;;;;;;;;;5022650;28;87448;-64
2023/12/12 11:13:46;;;;;;;4.00;2.63;;;;;;;;;;5009250;28;87586;-64
2023/12/12 11:16:15;;;;;;;3.63;2.33;;;;;;;;;;5020637;28;89711;-64
2023/12/12 11:18:44;;;;;;;3.23;2.50;;;;;;;;;;5012739;28;90789;-65
2023/12/12 11:21:28;;;;;;;4.23;2.43;;;;;;;;;;5024305;28;87474;-67
2023/12/12 11:23:56;;;;;;;5.73;2.90;;;;;;;;;;5007330;28;87687;-65
2023/12/12 11:26:26;;;;;;;2.90;1.87;;;;;;;;;;5010308;28;89680;-63
2023/12/12 11:28:56;;;;;;;4.33;1.90;;;;;;;;;;5016689;28;89513;-63
2023/12/12 11:31:27;;;;;;;2.50;1.90;;;;;;;;;;5023493;28;87390;-63
2023/12/12 11:34:02;;;;;;;6.40;2.60;;;;;;;;;;5023954;28;87490;-63
2023/12/12 11:36:46;;;;;;;2.83;2.07;;;;;;;;;;5008607;28;89717;-70
2023/12/12 11:39:14;;;;;;;2.20;2.00;;;;;;;;;;5018140;28;88993;-70
2023/12/12 11:41:44;;;;;;;6.43;1.90;;;;;;;;;;5018670;28;87467;-67
2023/12/12 11:44:12;;;;;;;3.40;2.20;;;;;;;;;;5013712;28;87625;-68
2023/12/12 11:46:41;;;;;;;5.10;2.23;;;;;;;;;;5023657;28;89643;-70
2023/12/12 11:49:19;;;;;;;3.40;2.10;;;;;;;;;;5018685;28;89056;-66
2023/12/12 11:51:49;;;;;;;4.87;2.73;;;;;;;;;;5023567;28;88974;-67
2023/12/12 11:54:21;;;;;;;5.00;2.30;;;;;;;;;;5016185;28;87699;-69
2023/12/12 11:56:56;;;;;;;2.30;1.83;;;;;;;;;;5010882;28;92557;-72
2023/12/12 11:59:24;;;;;;;4.87;2.40;;;;;;;;;;5011520;28;89049;-72
2023/12/12 12:01:53;;;;;;;1.97;1.60;;;;;;;;;;5023638;28;87586;-70
2023/12/12 12:04:21;;;;;;;6.23;2.50;;;;;;;;;;5022999;28;87578;-71
2023/12/12 12:06:50;;;;;;;3.43;2.17;;;;;;;;;;5023197;28;89656;-69
2023/12/12 12:09:18;;;;;;;3.37;1.83;;;;;;;;;;5023599;28;89043;-67
2023/12/12 12:11:47;;;;;;;2.87;1.97;;;;;;;;;;5024208;28;87367;-67
2023/12/12 12:14:22;;;;;;;4.80;2.53;;;;;;;;;;5023640;28;87526;-67
2023/12/12 12:16:52;;;;;;;3.53;2.07;;;;;;;;;;5024150;28;89926;-67
2023/12/12 12:19:31;;;;;;;4.17;1.73;;;;;;;;;;5024036;28;89066;-67
2023/12/12 12:22:07;;;;;;;4.00;2.27;;;;;;;;;;5023366;28;87371;-67
2023/12/12 12:24:42;;;;;;;3.03;1.73;;;;;;;;;;5023578;28;87688;-67
2023/12/12 12:27:10;;;;;;;3.10;2.30;;;;;;;;;;5023848;28;88481;-68
2023/12/12 12:29:40;;;;;;;3.53;1.87;;;;;;;;;;5023758;28;89053;-67
2023/12/12 12:32:12;;;;;;;3.27;1.77;;;;;;;;;;5023855;28;87350;-67
2023/12/12 12:34:40;;;;;;;2.50;1.10;;;;;;;;;;5022593;28;87454;-67
2023/12/12 12:37:08;;;;;;;3.50;1.93;;;;;;;;;;5023151;28;89648;-68
2023/12/12 12:39:46;;;;;;;2.00;1.63;;;;;;;;;;5023450;28;89111;-67
2023/12/12 12:42:14;;;;;;;2.87;1.67;;;;;;;;;;5003631;28;87263;-68
2023/12/12 12:44:44;;;;;;;6.00;2.00;;;;;;;;;;5003566;28;87678;-67
2023/12/12 12:47:13;;;;;;;5.57;1.50;;;;;;;;;;5003429;28;90322;-68
2023/12/12 12:49:41;;;;;;;3.60;2.17;;;;;;;;;;5002725;28;89139;-68
2023/12/12 12:52:10;;;;;;;2.67;1.87;;;;;;;;;;5004846;28;87462;-68
2023/12/12 12:54:38;;;;;;;2.27;1.47;;;;;;;;;;5023224;28;87591;-68
2023/12/12 12:57:06;;;;;;;3.23;1.97;;;;;;;;;;5023092;28;89636;-68
2023/12/12 12:59:35;;;;;;;2.03;1.50;;;;;;;;;;5022103;28;88971;-68
2023/12/12 13:02:05;;;;;;;2.27;1.33;;;;;;;;;;5022870;28;87421;-68
2023/12/12 13:04:33;;;;;;;2.07;1.43;;;;;;;;;;5022799;28;87641;-68
2023/12/12 13:07:03;;;;;;;2.07;1.50;;;;;;;;;;5023115;28;89641;-68
2023/12/12 13:09:31;;;;;;;1.53;1.37;;;;;;;;;;5023001;28;89186;-68
2023/12/12 13:12:03;;;;;;;2.17;1.20;;;;;;;;;;5023172;28;87423;-68
2023/12/12 13:14:31;;;;;;;2.27;1.40;;;;;;;;;;5022530;28;87462;-68
2023/12/12 13:17:00;;;;;;;2.83;1.23;;;;;;;;;;5022811;28;89670;-68
2023/12/12 13:19:30;;;;;;;3.97;1.30;;;;;;;;;;5022697;28;89530;-68
2023/12/12 13:21:58;;;;;;;2.83;1.40;;;;;;;;;;5022808;28;87902;-68
2023/12/12 13:24:27;;;;;;;5.67;1.50;;;;;;;;;;5022520;28;87742;-68
2023/12/12 13:26:55;;;;;;;3.27;1.20;;;;;;;;;;5022620;28;89580;-68
2023/12/12 13:29:24;;;;;;;1.87;1.20;;;;;;;;;;5025719;28;89092;-68
2023/12/12 13:31:52;;;;;;;2.73;1.47;;;;;;;;;;5042780;28;87282;-68
2023/12/12 13:34:20;;;;;;;2.60;1.10;;;;;;;;;;5041848;27;87611;-68
2023/12/12 13:36:50;;;;;;;2.77;0.90;;;;;;;;;;5039077;28;89712;-69
2023/12/12 13:39:19;;;;;;;2.77;0.90;;;;;;;;;;5009450;28;89150;-67
2023/12/12 13:41:47;;;;;;;4.33;1.17;;;;;;;;;;5003102;28;87824;-68
2023/12/12 13:44:16;;;;;;;1.20;1.10;;;;;;;;;;5008775;28;88456;-67
2023/12/12 13:46:45;;;;;;;1.47;1.00;;;;;;;;;;5009336;28;89604;-66
2023/12/12 13:49:13;;;;;;;3.17;1.40;;;;;;;;;;5006915;28;89073;-63
2023/12/12 13:51:42;;;;;;;0.93;0.70;;;;;;;;;;5020704;28;87664;-62
2023/12/12 13:54:16;;;;;;;1.73;1.20;;;;;;;;;;5012026;28;87558;-63
2023/12/12 13:56:46;;;;;;;2.50;1.07;;;;;;;;;;5010412;28;89694;-63
2023/12/12 13:59:15;;;;;;;2.53;1.17;;;;;;;;;;5011213;28;89114;-64
2023/12/12 14:01:43;;;;;;;2.87;1.10;;;;;;;;;;5021473;28;87446;-65
2023/12/12 14:04:12;;;;;;;1.47;1.20;;;;;;;;;;5015571;28;87640;-65
2023/12/12 14:06:40;;;;;;;5.73;1.40;;;;;;;;;;5006224;28;89736;-66
2023/12/12 14:09:09;;;;;;;1.13;1.03;;;;;;;;;;5002319;28;89453;-68
2023/12/12 14:11:39;;;;;;;1.77;1.23;;;;;;;;;;5018360;28;87521;-63
2023/12/12 14:14:09;;;;;;;1.63;1.37;;;;;;;;;;5013144;28;87679;-63
2023/12/12 14:16:37;;;;;;;2.50;1.57;;;;;;;;;;5011438;28;89656;-62
2023/12/12 14:19:09;;;;;;;1.83;1.10;;;;;;;;;;5016233;28;91196;-64
2023/12/12 14:21:38;;;;;;;2.17;1.07;;;;;;;;;;5018860;28;87954;-61
2023/12/12 14:24:06;;;;;;;1.57;1.40;;;;;;;;;;5011733;28;87455;-65
2023/12/12 14:26:35;;;;;;;1.67;1.30;;;;;;;;;;5010742;28;89850;-61
2023/12/12 14:29:04;;;;;;;3.13;1.43;;;;;;;;;;5014944;28;89100;-63
2023/12/12 14:31:33;;;;;;;1.77;1.33;;;;;;;;;;5015038;28;87509;-63
2023/12/12 14:34:01;;;;;;;1.90;1.50;;;;;;;;;;5019190;28;87959;-63
2023/12/12 14:36:30;;;;;;;2.03;0.97;;;;;;;;;;5011669;28;89644;-62
2023/12/12 14:39:00;;;;;;;1.90;1.53;;;;;;;;;;5014433;28;89067;-63
2023/12/12 14:41:29;;;;;;;3.93;1.37;;;;;;;;;;5020329;28;87783;-62
2023/12/12 14:43:58;;;;;;;2.33;1.43;;;;;;;;;;5019451;28;87730;-64
2023/12/12 14:46:27;;;;;;;1.67;1.40;;;;;;;;;;5017942;28;89636;-62
2023/12/12 14:48:56;;;;;;;10.23;6.43;;;;;;;;;;5012469;28;88982;-64
2023/12/12 14:51:25;;;;;;;7.20;4.23;;;;;;;;;;5021021;28;87360;-65
2023/12/12 14:53:53;;;;;;;4.07;3.17;;;;;;;;;;5009543;28;87630;-62
2023/12/12 14:56:21;;;;;;;2.40;1.83;;;;;;;;;;5008336;28;89710;-62